Capitol Logistics 868


FACT
Cape Town International Airport
Cape Town, ZA
GOBD
Blaise Diagne International Airport
Dakar, SN

Activity Log

Date Flight Route Aircraft Duration
12/29/2019 CPX868 KODE1B KODES ABV VMO 0300W ROB B600 BJ BJ1D B763 8h 55m
12/19/2019 CPX868 Not Available B763 7h 12m
10/21/2019 CPX768 Not Available B763 8h 46m

Route Details

Aircraft Information
Primary: Boeing 767-300BDSF
Backup: Not Available
Route Data
Distance: 3553nm
Sched. Duration: 6h 59m
Avg. Duration: 8h 04m (+145m)
Times Flown: 3
Recm'd Route: Not Available
Planned Altitude: 34,000ft
Origin Wx: FACT 271000Z 17024KT 9999 SCT035 21/12 Q1019 NOSIG
Dest. Wx: GOBD 271030Z 07014KT 8000 NSC 32/06 Q1013 NOSIG
Notes:

Financial History
Total Freight: 227,889lbs
Average Load: 75,963lbs/flt
Fuel Used: 266,032lbs
Avg. Fuel Used: 88,677lbs/flt
Fuel Expense: $236,768
Avg. Fuel Expense: $78,923
Avg. Fuel Cost: $0.89/lbs
Total Gross Income: $2,151,325
Pilot Pay: $717
Total Expenses: $232,499
Total Revenue: $1,676,157
Average Revenue: $717,108.19